Time;durP1;ratioP1;P1;durP2;ratioP2;P2;SDS_P1;SDS_P2;PMS_P1;PMS_P2;Temp;Humidity;BMP_temperature;BMP_pressure;BME280_temperature;BME280_humidity;BME280_pressure;Samples;Min_cycle;Max_cycle;Signal;HPM_P1;HPM_P2
2022/01/26 00:00:43;;;;;;;16.15;10.18;;;;;;;4.90;91.16;101433.13;3121961;76;20960;-68
2022/01/26 00:08:48;;;;;;;17.77;9.00;;;;;;;4.73;92.42;101423.26;3122276;76;21059;-68
2022/01/26 00:12:50;;;;;;;16.32;9.58;;;;;;;4.75;92.64;101430.17;3121803;76;20971;-68
2022/01/26 00:16:52;;;;;;;16.15;10.95;;;;;;;4.76;92.57;101423.13;3121329;76;21523;-68
2022/01/26 00:20:57;;;;;;;14.00;11.38;;;;;;;4.76;92.30;101424.45;3121701;76;20983;-69
2022/01/26 00:41:41;;;;;;;20.02;12.53;;;;;;;4.80;92.50;101406.27;3121405;76;20999;-69
2022/01/26 00:45:44;;;;;;;16.73;11.33;;;;;;;4.76;92.34;101406.00;3121674;76;21022;-69
2022/01/26 00:49:45;;;;;;;13.40;9.68;;;;;;;4.82;92.25;101409.70;3102547;76;20996;-68
2022/01/26 00:53:58;;;;;;;17.98;12.33;;;;;;;4.85;91.86;101406.94;3091181;76;21090;-68
2022/01/26 00:57:53;;;;;;;17.27;13.50;;;;;;;4.83;91.64;101410.09;3088991;75;21012;-69
2022/01/26 01:01:56;;;;;;;12.75;9.65;;;;;;;4.78;91.88;101404.16;3090889;75;21429;-68
2022/01/26 01:06:45;;;;;;;17.35;11.83;;;;;;;4.82;91.98;101397.84;3091015;77;21024;-69
2022/01/26 01:10:05;;;;;;;;;;;;;;;4.85;91.98;101389.80;3073559;75;21050;-69
2022/01/26 01:14:06;;;;;;;12.20;9.28;;;;;;;4.83;91.94;101392.52;3090961;77;20142;-69
2022/01/26 01:22:49;;;;;;;19.35;12.93;;;;;;;4.86;91.50;101395.47;3090641;76;21000;-68
2022/01/26 01:30:51;;;;;;;14.47;10.35;;;;;;;4.88;91.59;101389.67;3090648;76;20979;-69
2022/01/26 01:34:50;;;;;;;21.10;13.15;;;;;;;4.85;91.76;101393.31;3090177;77;21000;-68
2022/01/26 01:38:54;;;;;;;17.82;11.55;;;;;;;4.84;91.59;101389.41;3090981;76;20976;-68
2022/01/26 01:42:55;;;;;;;16.40;12.98;;;;;;;4.73;91.77;101408.77;3090488;76;21004;-69
2022/01/26 01:46:57;;;;;;;19.65;13.20;;;;;;;4.68;92.35;101400.55;3090181;76;21083;-69
2022/01/26 01:51:05;;;;;;;18.98;11.08;;;;;;;4.58;93.09;101409.27;3094820;76;21035;-69
2022/01/26 01:55:07;;;;;;;15.08;12.53;;;;;;;4.40;94.66;101405.58;3095787;77;20972;-68
2022/01/26 01:59:10;;;;;;;14.63;10.78;;;;;;;4.39;95.13;101407.81;3095804;76;21027;-69
2022/01/26 02:03:12;;;;;;;17.27;9.88;;;;;;;4.41;95.45;101405.98;3096208;77;21016;-69
2022/01/26 02:07:14;;;;;;;17.65;11.40;;;;;;;4.38;95.80;101407.42;3096316;77;20980;-69
2022/01/26 02:11:16;;;;;;;14.95;10.75;;;;;;;4.46;95.79;101399.67;3096133;77;20992;-69
2022/01/26 02:15:26;;;;;;;21.33;13.70;;;;;;;4.52;95.70;101390.20;3096214;77;20995;-69
2022/01/26 02:54:21;;;;;;;25.45;14.80;;;;;;;4.46;96.34;101373.32;3090523;77;20999;-70
2022/01/26 02:57:43;;;;;;;23.07;16.00;;;;;;;4.48;96.28;101369.72;3067621;77;21020;-69
2022/01/26 03:05:37;;;;;;;18.65;10.95;;;;;;;4.56;96.07;101369.42;3090693;76;21019;-68
2022/01/26 03:09:44;;;;;;;17.75;13.22;;;;;;;4.61;95.83;101362.19;3089934;77;20976;-69
2022/01/26 03:13:48;;;;;;;16.62;12.13;;;;;;;4.64;95.69;101367.33;3088950;77;21031;-70
2022/01/26 03:30:31;;;;;;;15.13;12.23;;;;;;;4.85;94.52;101352.89;3090800;77;21008;-69
2022/01/26 03:34:24;;;;;;;18.70;12.95;;;;;;;4.90;94.29;101357.98;3087533;77;21019;-69
2022/01/26 03:38:38;;;;;;;21.77;14.78;;;;;;;4.86;94.03;101364.70;3090484;76;20961;-70
2022/01/26 03:42:29;;;;;;;22.35;12.23;;;;;;;4.95;93.95;101363.91;3087735;77;21055;-70
2022/01/26 03:46:32;;;;;;;17.12;11.35;;;;;;;4.91;93.69;101363.17;3090521;76;21043;-69
2022/01/26 03:50:34;;;;;;;19.35;13.90;;;;;;;4.80;93.84;101364.93;3094419;76;20988;-69
2022/01/26 03:54:35;;;;;;;22.00;13.48;;;;;;;4.77;94.25;101373.44;3095921;77;21012;-69
2022/01/26 03:58:37;;;;;;;20.92;14.00;;;;;;;4.69;94.51;101374.59;3096400;76;20976;-69
2022/01/26 04:02:39;;;;;;;17.57;10.50;;;;;;;4.64;95.21;101375.23;3096201;77;21050;-69
2022/01/26 04:06:41;;;;;;;14.18;11.15;;;;;;;4.53;95.98;101376.14;3096751;77;21043;-69
2022/01/26 04:15:05;;;;;;;18.20;10.48;;;;;;;4.32;97.23;101376.02;3096885;76;21007;-69
2022/01/26 04:19:02;;;;;;;24.37;11.35;;;;;;;4.33;97.58;101380.40;3095438;77;21008;-68
2022/01/26 04:23:13;;;;;;;19.12;11.00;;;;;;;4.27;97.60;101383.25;3096044;77;21039;-70
2022/01/26 04:31:19;;;;;;;18.65;9.95;;;;;;;4.11;98.74;101369.33;3061915;77;20108;-70
2022/01/26 04:35:20;;;;;;;15.32;9.68;;;;;;;3.97;99.35;101378.22;3062709;77;20981;-70
2022/01/26 04:39:27;;;;;;;13.50;9.43;;;;;;;3.97;99.54;101370.32;3062739;77;20977;-70
2022/01/26 04:43:29;;;;;;;17.25;11.40;;;;;;;4.01;99.76;101381.14;3061953;77;20981;-69
2022/01/26 04:47:28;;;;;;;15.50;11.75;;;;;;;3.98;99.90;101364.14;2964362;80;20996;-70
2022/01/26 04:51:30;;;;;;;16.90;11.15;;;;;;;3.95;100.00;101370.84;3053301;76;21107;-69
2022/01/26 04:55:32;;;;;;;20.45;11.55;;;;;;;3.93;100.00;101357.72;3090788;77;20997;-70
2022/01/26 04:59:34;;;;;;;17.17;11.28;;;;;;;3.98;100.00;101356.24;3090678;76;21005;-69
2022/01/26 05:03:36;;;;;;;16.27;10.08;;;;;;;4.03;100.00;101342.88;3090455;76;21000;-71
2022/01/26 05:07:38;;;;;;;14.43;10.63;;;;;;;4.00;100.00;101342.08;3090885;77;20972;-71
2022/01/26 05:11:42;;;;;;;19.60;12.55;;;;;;;4.02;100.00;101331.95;3089184;76;21299;-73
2022/01/26 05:15:44;;;;;;;15.53;10.88;;;;;;;4.05;100.00;101332.70;3089113;75;21027;-71
2022/01/26 05:19:45;;;;;;;18.02;13.15;;;;;;;4.03;100.00;101330.59;3089152;76;21003;-72
2022/01/26 05:23:48;;;;;;;21.60;11.33;;;;;;;4.04;100.00;101319.62;3089169;76;20983;-71
2022/01/26 05:27:49;;;;;;;20.72;12.78;;;;;;;4.02;100.00;101314.84;3088629;77;21687;-71
2022/01/26 05:31:51;;;;;;;19.60;13.28;;;;;;;4.05;100.00;101320.86;3089385;76;21312;-71
2022/01/26 05:35:53;;;;;;;20.27;15.32;;;;;;;4.07;99.93;101311.12;3089929;76;21027;-72
2022/01/26 05:39:54;;;;;;;23.50;15.23;;;;;;;4.03;99.70;101309.97;3089046;77;20964;-72
2022/01/26 05:43:56;;;;;;;28.85;17.05;;;;;;;4.00;99.68;101310.48;3089520;77;20973;-72
2022/01/26 05:48:01;;;;;;;24.25;17.85;;;;;;;4.00;99.77;101309.64;3089333;76;20956;-72
2022/01/26 05:52:01;;;;;;;25.37;15.10;;;;;;;3.99;99.60;101299.56;3074844;76;21496;-71
2022/01/26 05:56:04;;;;;;;23.95;15.85;;;;;;;4.05;99.45;101302.42;3073775;77;21694;-72
2022/01/26 06:00:07;;;;;;;23.60;14.55;;;;;;;4.05;99.26;101292.37;3073254;77;21012;-71
2022/01/26 06:04:09;;;;;;;27.77;17.35;;;;;;;4.00;99.20;101293.38;3073370;77;21008;-71
2022/01/26 06:08:11;;;;;;;25.95;16.00;;;;;;;4.01;99.07;101303.46;3073475;77;21039;-71
2022/01/26 06:12:12;;;;;;;31.25;15.53;;;;;;;3.97;99.08;101296.61;3073683;77;20964;-72
2022/01/26 06:16:16;;;;;;;25.68;16.70;;;;;;;4.01;98.90;101294.25;3073986;77;21642;-72
2022/01/26 06:20:19;;;;;;;25.37;17.05;;;;;;;4.02;98.67;101301.67;3073541;77;20985;-72
2022/01/26 06:24:20;;;;;;;27.02;15.93;;;;;;;4.03;98.32;101294.17;3073586;77;21452;-71
2022/01/26 06:28:29;;;;;;;31.85;17.92;;;;;;;4.02;97.89;101293.33;3073620;77;21004;-72
2022/01/26 06:32:30;;;;;;;23.50;15.98;;;;;;;4.09;97.80;101301.38;3073700;77;20981;-72
2022/01/26 06:36:32;;;;;;;28.27;19.40;;;;;;;4.09;97.42;101301.38;3074013;77;21047;-72
2022/01/26 06:40:33;;;;;;;33.88;18.07;;;;;;;4.07;97.28;101297.95;3073780;77;20945;-71
2022/01/26 06:44:46;;;;;;;29.82;18.92;;;;;;;4.14;97.25;101298.58;3073865;77;20964;-72
2022/01/26 06:52:47;;;;;;;29.80;18.48;;;;;;;4.12;97.03;101297.31;3119741;76;20987;-72
2022/01/26 06:56:49;;;;;;;30.80;18.65;;;;;;;4.10;96.95;101291.72;3120947;76;20956;-72
2022/01/26 07:00:51;;;;;;;32.10;17.17;;;;;;;4.10;96.82;101285.14;3120628;76;21011;-72
2022/01/26 07:04:53;;;;;;;32.55;19.30;;;;;;;4.08;97.17;101279.92;3120186;76;21065;-72
2022/01/26 07:08:55;;;;;;;33.85;18.92;;;;;;;4.14;97.30;101287.60;3120384;76;21000;-71
2022/01/26 07:12:57;;;;;;;25.95;15.90;;;;;;;4.11;97.05;101294.28;3120819;76;20979;-72
2022/01/26 07:25:30;;;;;;;25.90;17.35;;;;;;;4.13;97.51;101295.11;3120305;76;21583;-71
2022/01/26 07:29:32;;;;;;;29.42;19.35;;;;;;;4.13;97.57;101297.73;3120336;76;21006;-72
2022/01/26 07:33:34;;;;;;;25.77;18.67;;;;;;;4.20;97.59;101305.39;3120837;76;21007;-71
2022/01/26 07:37:36;;;;;;;26.87;17.57;;;;;;;4.17;97.29;101302.88;3120683;76;20972;-71
2022/01/26 07:41:38;;;;;;;21.52;15.88;;;;;;;4.12;97.22;101297.78;3121163;76;20987;-71
2022/01/26 07:45:41;;;;;;;22.17;15.58;;;;;;;4.16;97.49;101300.69;3120862;76;21404;-71
2022/01/26 07:49:43;;;;;;;25.95;16.07;;;;;;;4.18;97.18;101307.23;3120500;76;20951;-71
2022/01/26 07:53:45;;;;;;;22.32;14.23;;;;;;;4.24;96.96;101300.40;3120548;76;21026;-71
2022/01/26 07:57:49;;;;;;;27.85;13.83;;;;;;;4.16;96.52;101310.38;3120703;76;20999;-71
2022/01/26 08:01:51;;;;;;;21.75;12.78;;;;;;;4.17;96.58;101318.69;3120911;76;20959;-71
2022/01/26 08:05:52;;;;;;;22.45;14.28;;;;;;;4.26;96.67;101298.56;3120749;76;21364;-71
2022/01/26 08:09:54;;;;;;;15.98;12.58;;;;;;;4.18;96.02;101306.75;3120826;76;21475;-71
2022/01/26 08:13:57;;;;;;;25.50;15.40;;;;;;;4.33;96.02;101311.91;3120891;76;20960;-71
2022/01/26 08:18:02;;;;;;;19.23;12.40;;;;;;;4.23;95.75;101313.17;3120846;76;21030;-71
2022/01/26 08:22:04;;;;;;;16.17;11.03;;;;;;;4.33;95.54;101314.98;3121372;76;20952;-71
2022/01/26 08:26:06;;;;;;;27.15;13.05;;;;;;;4.28;95.70;101312.52;3121375;76;20967;-71
2022/01/26 08:30:14;;;;;;;22.77;14.38;;;;;;;4.34;95.55;101307.48;3120682;76;20924;-71
2022/01/26 08:34:14;;;;;;;;;;;;;;;4.42;95.25;101308.89;3123765;76;21011;-71
2022/01/26 08:38:15;;;;;;;20.37;11.88;;;;;;;4.42;94.77;101304.94;3121156;76;20128;-71
2022/01/26 08:42:17;;;;;;;22.80;13.15;;;;;;;4.39;95.36;101309.02;3120861;76;20980;-71
2022/01/26 08:46:19;;;;;;;16.85;11.88;;;;;;;4.47;95.16;101304.77;3120991;76;21015;-71
2022/01/26 08:50:21;;;;;;;27.67;14.43;;;;;;;4.29;94.60;101306.34;3120282;76;21019;-71
2022/01/26 08:54:23;;;;;;;15.20;10.18;;;;;;;4.38;95.26;101311.26;3121081;76;21030;-71
2022/01/26 08:58:24;;;;;;;21.17;11.57;;;;;;;4.26;94.75;101300.75;3120978;76;21454;-71
2022/01/26 09:02:26;;;;;;;22.02;13.25;;;;;;;4.28;95.88;101309.89;3121334;76;20995;-71
2022/01/26 09:06:28;;;;;;;17.95;10.10;;;;;;;4.34;95.61;101303.08;3120575;76;21039;-71
2022/01/26 09:10:33;;;;;;;19.98;13.20;;;;;;;4.39;95.68;101312.10;3120634;76;20963;-71
2022/01/26 09:14:33;;;;;;;15.35;12.60;;;;;;;4.48;95.85;101320.10;3120333;76;20975;-71
2022/01/26 09:18:48;;;;;;;19.90;12.68;;;;;;;4.41;94.56;101312.45;3120609;76;20964;-71
2022/01/26 09:22:42;;;;;;;20.95;13.72;;;;;;;4.46;95.15;101324.58;3118891;76;21026;-71
2022/01/26 09:26:44;;;;;;;20.17;14.80;;;;;;;4.53;95.65;101334.81;3120258;76;20947;-71
2022/01/26 09:30:46;;;;;;;19.30;12.45;;;;;;;4.63;95.47;101319.49;3119987;76;21008;-71
2022/01/26 09:34:48;;;;;;;17.48;12.47;;;;;;;4.61;94.69;101332.33;3120586;76;20992;-70
2022/01/26 09:38:50;;;;;;;18.17;13.85;;;;;;;4.70;95.09;101315.67;3120234;76;21026;-71
2022/01/26 09:42:52;;;;;;;15.00;10.40;;;;;;;4.81;94.33;101300.73;3121166;76;21054;-70
2022/01/26 09:46:53;;;;;;;18.40;10.82;;;;;;;4.76;93.17;101291.33;3120640;76;21007;-70
2022/01/26 09:50:56;;;;;;;16.20;11.97;;;;;;;4.79;92.66;101301.74;3110400;76;20992;-70
2022/01/26 09:55:01;;;;;;;13.28;9.35;;;;;;;4.75;92.64;101298.84;3089811;76;21070;-70
2022/01/26 09:59:06;;;;;;;16.62;13.00;;;;;;;4.75;92.22;101283.86;3089714;76;21036;-70
2022/01/26 10:03:08;;;;;;;18.42;11.57;;;;;;;4.84;92.55;101276.91;3090277;76;21000;-70
2022/01/26 10:15:32;;;;;;;14.93;9.60;;;;;;;4.99;92.42;101282.44;3090158;76;21556;-70
2022/01/26 10:19:33;;;;;;;12.00;8.73;;;;;;;4.87;91.42;101281.17;3089896;76;21016;-70
2022/01/26 10:23:41;;;;;;;18.10;11.88;;;;;;;4.86;92.28;101282.97;3090233;76;20983;-70
2022/01/26 10:27:48;;;;;;;15.00;11.57;;;;;;;4.73;92.10;101279.12;3076527;77;21027;-70
2022/01/26 10:31:49;;;;;;;18.87;13.28;;;;;;;4.59;92.29;101273.11;3076518;77;21062;-70
2022/01/26 10:35:56;;;;;;;18.65;13.95;;;;;;;4.61;93.11;101288.39;3076741;77;21003;-70
2022/01/26 10:40:15;;;;;;;17.82;12.82;;;;;;;4.66;92.83;101269.77;3074614;77;31310;-70
2022/01/26 10:44:18;;;;;;;16.45;13.45;;;;;;;4.73;93.12;101259.35;3076772;77;21019;-70
2022/01/26 10:52:54;;;;;;;21.12;11.80;;;;;;;4.60;91.90;101245.83;3066504;77;21003;-70
2022/01/26 10:56:50;;;;;;;15.72;13.25;;;;;;;4.67;92.71;101278.91;3062272;77;20975;-71
2022/01/26 11:00:54;;;;;;;11.48;8.73;;;;;;;4.68;92.11;101242.41;3063384;77;21042;-70
2022/01/26 11:04:55;;;;;;;17.52;11.85;;;;;;;4.67;91.51;101269.69;3063604;77;21012;-70
2022/01/26 11:09:02;;;;;;;14.50;8.48;;;;;;;4.71;90.88;101238.31;3063445;77;21042;-70
2022/01/26 11:13:05;;;;;;;14.45;11.83;;;;;;;4.65;90.51;101246.48;3063684;77;20947;-70
2022/01/26 11:17:09;;;;;;;14.13;9.53;;;;;;;4.70;90.91;101259.01;3063395;77;20967;-70
2022/01/26 11:21:14;;;;;;;15.75;9.95;;;;;;;4.75;90.15;101250.08;3063409;77;20995;-70
2022/01/26 11:25:15;;;;;;;9.75;6.45;;;;;;;4.75;90.71;101261.45;3063240;77;20975;-70
2022/01/26 11:29:22;;;;;;;10.10;6.87;;;;;;;4.74;89.57;101247.88;3063496;77;21006;-71
2022/01/26 11:33:26;;;;;;;;;;;;;;;4.64;89.01;101270.29;3066248;77;20967;-70
2022/01/26 11:37:47;;;;;;;8.10;6.67;;;;;;;4.73;90.22;101247.48;3063597;77;20126;-70
2022/01/26 11:46:09;;;;;;;9.90;6.47;;;;;;;4.69;90.25;101259.93;3063372;77;21003;-70
2022/01/26 11:50:15;;;;;;;7.55;6.47;;;;;;;4.61;90.76;101259.84;3063200;77;21054;-70
2022/01/26 11:54:24;;;;;;;7.65;6.22;;;;;;;4.47;89.77;101226.17;3035466;77;21021;-70
2022/01/26 11:58:33;;;;;;;8.73;5.47;;;;;;;4.49;90.18;101240.13;3062882;77;20948;-71
2022/01/26 12:06:53;;;;;;;13.43;6.40;;;;;;;4.43;90.92;101238.16;3063208;77;20967;-70
2022/01/26 12:10:51;;;;;;;8.78;5.87;;;;;;;4.35;90.17;101248.61;3062708;77;20983;-70
2022/01/26 12:15:07;;;;;;;13.35;8.70;;;;;;;4.45;90.97;101245.14;3063197;77;21069;-70
2022/01/26 12:19:24;;;;;;;10.33;7.47;;;;;;;4.40;91.04;101229.06;3064113;76;20991;-70
2022/01/26 12:44:46;;;;;;;10.63;7.65;;;;;;;4.38;91.49;101248.03;3063824;77;20998;-71
2022/01/26 12:48:54;;;;;;;9.45;7.97;;;;;;;4.32;92.63;101245.62;3063701;77;20986;-70
2022/01/26 12:52:57;;;;;;;7.85;6.15;;;;;;;4.39;93.00;101254.14;3044655;77;21033;-70
2022/01/26 12:57:07;;;;;;;8.85;6.55;;;;;;;4.36;91.91;101251.19;3034690;78;21009;-70
2022/01/26 13:01:13;;;;;;;10.80;8.60;;;;;;;4.27;91.93;101237.05;3034676;78;21052;-70
2022/01/26 13:05:17;;;;;;;11.50;5.92;;;;;;;4.20;90.86;101232.97;3033940;78;21037;-70
2022/01/26 13:09:25;;;;;;;11.20;6.67;;;;;;;4.31;92.00;101232.53;3034310;77;21063;-70
2022/01/26 13:13:31;;;;;;;13.28;7.15;;;;;;;4.19;90.36;101233.89;3034722;78;21044;-70
2022/01/26 13:17:39;;;;;;;10.45;7.35;;;;;;;4.23;90.53;101219.22;3034476;78;21044;-70
2022/01/26 13:22:01;;;;;;;11.68;7.70;;;;;;;4.19;90.45;101228.62;3033743;78;20966;-70
2022/01/26 13:30:41;;;;;;;15.60;10.15;;;;;;;4.21;90.12;101193.86;2831529;83;21556;-70
2022/01/26 13:34:51;;;;;;;13.13;9.15;;;;;;;4.16;88.08;101182.19;2888001;80;21060;-70
2022/01/26 13:38:56;;;;;;;12.07;9.95;;;;;;;4.23;87.25;101192.02;2919154;81;20998;-70
2022/01/26 13:59:52;;;;;;;16.55;11.00;;;;;;;4.13;85.46;101206.89;3005924;79;20986;-71
2022/01/26 14:03:55;;;;;;;21.93;12.80;;;;;;;4.17;85.06;101187.01;3005260;79;21021;-71
2022/01/26 14:07:56;;;;;;;15.08;10.20;;;;;;;4.28;85.51;101194.86;3005142;79;21013;-71
2022/01/26 14:12:00;;;;;;;17.20;9.90;;;;;;;4.13;85.51;101198.11;2970370;80;21010;-69
2022/01/26 14:16:04;;;;;;;15.13;10.20;;;;;;;4.14;85.59;101211.23;3006141;79;21029;-66
2022/01/26 14:28:22;;;;;;;14.65;10.48;;;;;;;4.12;84.25;101218.31;3001351;79;21037;-69
2022/01/26 14:40:55;;;;;;;40.03;14.00;;;;;;;4.07;85.66;101211.06;3001063;79;20971;-67
2022/01/26 15:11:02;;;;;;;16.97;12.07;;;;;;;4.47;83.81;101168.20;3002092;79;20997;-68
2022/01/26 15:44:03;;;;;;;15.23;10.43;;;;;;;4.47;83.74;101137.45;3002972;79;20990;-68
2022/01/26 15:52:33;;;;;;;17.15;10.18;;;;;;;4.36;84.56;101159.44;3001638;78;21002;-68
2022/01/26 16:26:17;;;;;;;18.17;7.85;;;;;;;4.40;83.76;101151.34;3002472;79;21002;-67
2022/01/26 18:16:04;;;;;;;19.80;10.93;;;;;;;3.60;83.91;101115.95;2952399;80;21038;-67
2022/01/26 18:32:57;;;;;;;9.23;7.42;;;;;;;3.38;83.14;101112.00;2961431;80;20998;-69
2022/01/26 18:49:39;;;;;;;8.40;5.53;;;;;;;3.01;85.79;101144.45;2966092;80;21036;-73
2022/01/26 18:53:41;;;;;;;7.97;6.03;;;;;;;2.86;86.30;101127.48;2962973;80;21065;-72
2022/01/26 18:57:43;;;;;;;10.15;8.55;;;;;;;2.60;86.85;101164.73;2960309;80;21010;-73
2022/01/26 19:01:46;;;;;;;12.70;7.85;;;;;;;2.54;89.75;101153.98;2959581;79;21025;-73
2022/01/26 19:05:48;;;;;;;13.00;7.87;;;;;;;2.45;89.94;101133.73;2909454;81;21051;-72
2022/01/26 19:09:51;;;;;;;10.18;7.47;;;;;;;2.41;89.26;101131.66;3019653;78;21653;-72
2022/01/26 19:13:53;;;;;;;14.73;10.60;;;;;;;2.53;87.47;101125.13;2959643;79;21007;-72
2022/01/26 19:26:34;;;;;;;15.93;11.05;;;;;;;2.54;87.37;101125.08;3020400;78;21066;-72
2022/01/26 19:51:40;;;;;;;14.47;9.78;;;;;;;2.54;87.94;101107.14;2956155;80;21003;-72
2022/01/26 19:55:39;;;;;;;15.53;9.50;;;;;;;2.62;87.48;101128.77;2955140;79;21019;-72
2022/01/26 19:59:40;;;;;;;13.90;9.85;;;;;;;2.62;87.18;101119.56;2956205;80;21078;-73
2022/01/26 20:03:42;;;;;;;16.87;10.15;;;;;;;2.62;86.97;101102.49;2956191;80;21508;-74
2022/01/26 20:07:49;;;;;;;12.25;9.78;;;;;;;2.65;87.07;101115.95;3020205;79;20979;-73
2022/01/26 20:11:57;;;;;;;12.50;7.78;;;;;;;2.59;86.61;101093.41;2955607;80;21046;-73
2022/01/26 20:15:57;;;;;;;12.28;7.95;;;;;;;2.57;86.83;101089.98;3020031;79;20960;-73
2022/01/26 20:20:00;;;;;;;11.95;7.42;;;;;;;2.59;87.27;101069.77;3020419;79;21060;-73
2022/01/26 20:24:01;;;;;;;15.63;7.95;;;;;;;2.53;87.13;101072.16;2955926;80;21002;-73
2022/01/26 20:28:07;;;;;;;13.08;9.30;;;;;;;2.54;86.88;101067.73;3004982;78;21033;-73
2022/01/26 20:32:08;;;;;;;20.23;9.58;;;;;;;2.60;87.54;101075.86;3075962;77;20999;-73
2022/01/26 20:36:10;;;;;;;12.23;8.98;;;;;;;2.63;87.45;101095.01;3076126;77;21015;-73
2022/01/26 20:40:15;;;;;;;11.25;8.25;;;;;;;2.68;87.36;101088.28;3075796;77;20956;-73
2022/01/26 20:44:18;;;;;;;13.72;8.65;;;;;;;2.64;86.89;101069.14;3075879;77;21552;-72
2022/01/26 20:48:19;;;;;;;14.15;9.65;;;;;;;2.67;87.01;101076.06;3075834;77;20987;-72
2022/01/26 20:52:21;;;;;;;12.68;8.10;;;;;;;2.72;86.91;101079.38;3075946;77;20995;-73
2022/01/26 20:56:23;;;;;;;17.60;9.80;;;;;;;2.74;86.96;101080.61;3075986;77;20975;-73
2022/01/26 21:00:25;;;;;;;16.62;8.80;;;;;;;2.75;87.11;101077.94;3075690;77;20971;-71
2022/01/26 21:04:26;;;;;;;16.37;10.18;;;;;;;2.69;87.35;101059.31;3073893;77;21035;-71
2022/01/26 21:08:29;;;;;;;13.43;10.53;;;;;;;2.71;87.82;101052.23;3073690;77;20971;-71
2022/01/26 21:12:31;;;;;;;14.25;9.58;;;;;;;2.69;88.63;101047.97;3074272;77;21031;-71
2022/01/26 21:16:33;;;;;;;19.65;10.75;;;;;;;2.64;88.71;101049.88;3074319;77;20983;-71
2022/01/26 21:20:37;;;;;;;13.83;8.43;;;;;;;2.58;88.93;101050.98;3074275;77;21012;-72
2022/01/26 21:24:39;;;;;;;17.42;9.48;;;;;;;2.58;89.17;101074.63;3074017;77;21378;-72
2022/01/26 21:28:41;;;;;;;16.82;9.73;;;;;;;2.70;89.08;101062.81;3073735;77;21532;-71
2022/01/26 21:32:43;;;;;;;20.97;10.10;;;;;;;2.74;88.84;101060.91;3073971;77;20996;-71
2022/01/26 21:36:45;;;;;;;17.17;12.03;;;;;;;2.77;88.86;101055.56;3018087;79;20986;-71
2022/01/26 21:40:49;;;;;;;22.45;13.55;;;;;;;2.88;88.69;101034.98;3017450;78;21529;-72
2022/01/26 21:44:50;;;;;;;17.60;12.28;;;;;;;3.04;87.91;101037.88;3017987;79;21015;-71
2022/01/26 21:48:52;;;;;;;15.78;9.75;;;;;;;3.09;87.35;101037.27;3018811;78;20982;-71
2022/01/26 21:52:53;;;;;;;14.18;9.40;;;;;;;3.15;87.07;101034.86;3018315;79;20971;-71
2022/01/26 21:56:55;;;;;;;18.17;10.85;;;;;;;3.24;86.77;101042.38;3006401;79;20998;-71
2022/01/26 22:00:57;;;;;;;18.12;11.30;;;;;;;3.28;86.62;101049.22;3006562;79;21030;-72
2022/01/26 22:04:58;;;;;;;19.75;13.32;;;;;;;3.35;86.60;101058.20;3006312;79;21041;-73
2022/01/26 22:09:00;;;;;;;19.15;13.50;;;;;;;3.37;86.31;101053.74;3006484;79;21673;-72
2022/01/26 22:13:02;;;;;;;20.00;13.18;;;;;;;3.45;86.08;101042.45;3006853;79;21025;-72
2022/01/26 22:17:04;;;;;;;26.30;15.78;;;;;;;3.50;85.99;101034.38;3006578;79;21527;-72
2022/01/26 22:21:06;;;;;;;22.20;13.75;;;;;;;3.46;86.33;101029.69;3006542;79;21029;-72
2022/01/26 22:25:09;;;;;;;23.50;13.03;;;;;;;3.45;86.54;101026.66;3020964;77;20998;-71
2022/01/26 22:29:20;;;;;;;28.98;16.23;;;;;;;3.22;86.82;101032.83;3061147;77;20999;-71
2022/01/26 22:33:14;;;;;;;24.35;14.98;;;;;;;3.37;87.53;101038.80;3059841;77;20979;-72
2022/01/26 22:37:23;;;;;;;27.60;16.40;;;;;;;3.34;88.18;101020.96;3061381;77;20982;-72
2022/01/26 22:41:20;;;;;;;29.77;17.73;;;;;;;3.29;88.31;101003.59;3060741;77;20998;-72
2022/01/26 22:45:22;;;;;;;26.00;18.57;;;;;;;3.22;88.79;100987.68;3061721;77;20998;-72
2022/01/26 22:49:23;;;;;;;34.78;20.02;;;;;;;3.24;89.07;100986.28;3061281;77;20998;-71
2022/01/26 22:53:26;;;;;;;35.33;21.05;;;;;;;3.25;89.12;100985.40;3061668;77;20951;-71
2022/01/26 22:57:27;;;;;;;26.15;17.65;;;;;;;3.28;88.73;100993.16;3061226;77;20994;-72
2022/01/26 23:09:59;;;;;;;31.45;19.07;;;;;;;3.27;88.77;100980.45;3061481;77;20959;-72
2022/01/26 23:14:03;;;;;;;33.85;17.05;;;;;;;3.21;89.14;100975.45;3061456;77;21547;-72
2022/01/26 23:18:05;;;;;;;31.02;20.17;;;;;;;3.23;88.98;100971.43;3061420;77;21022;-72
2022/01/26 23:22:06;;;;;;;37.53;22.87;;;;;;;3.23;88.83;100958.28;3061458;77;21062;-72
2022/01/26 23:39:06;;;;;;;35.15;20.27;;;;;;;3.39;87.80;100944.91;3061381;77;20963;-72
